Weihenstephan, Germany

4:46 PM CET on December 25, 2014 (GMT +0100)
Munich | Change Station
CLOSE
Current Station
Airport
Location: Munich,
Elevation: 1486 ft
Nearby Weather Stations

Elev 1486 ft 48.35 °N, 11.81 °E | Updated 26 minutes ago

Mostly Cloudy
Mostly Cloudy
37 °F
Feels Like 29 °F
N
13
Wind Variable Wind from WSW

Today
High -- | Low -- °F
--% Chance of Precip.
Yesterday
High -- | Low -- °F
Precip. -- in
8:03 AM 4:22 PM
Waxing Crescent, 17% visible
Pressure 30.27 in
Visibility 6.2 miles
Clouds Few 2500 ft
Scattered Clouds 3600 ft
Mostly Cloudy 17000 ft
Windchill 29 °F
Dew Point 30 °F
Humidity 75%
Rainfall 0.00 in
Snow Depth Not available.
UV 0 out of 12
Pollen Not available.
Air Quality Not available.
Flu Activity Not available.
METAR EDDM 251520Z 25011KT 9999 FEW025 SCT036 BKN170 03/M01 Q1025 NOSIG

More Conditions Fewer Conditions

Pressure 30.27 in
Visibility 6.2 miles
Clouds Few 2500 ft
Scattered Clouds 3600 ft
Mostly Cloudy 17000 ft
Windchill 29 °F
Dew Point 30 °F
Humidity 75%
Rainfall 0.00 in
Snow Depth Not available.
UV 0 out of 12
Pollen Not available.
Air Quality Not available.
Flu Activity Not available.
METAR EDDM 251520Z 25011KT 9999 FEW025 SCT036 BKN170 03/M01 Q1025 NOSIG

More Conditions Fewer Conditions

10-Day Weather Forecast

Almanac

Astronomy

Dec. 25, 2014 Rise Set
Actual Time
Civil Twilight
Nautical Twilight
Astronomical Twilight
Moon
Length of Visible Light
Length of Day
Tomorrow will be .
, % of the Moon is Illuminated

Today's Extremes

Country Highs Country Lows

Community

WunderPhotos

Upload Photos

1,780,315 photos uploaded!

WunderBlogs® & News

Nearby

Air Quality

  Air Quality AQ Index Pollutant
Not available.

Snow Depth

Station Depth Elevation

Earthquake Activity

City Distance Mag. Time & Date
Minimum magnitude displayed is 2.5.

Coastal Water Temperatures

Place Temperature

Nearby Weather Stations